Aurora, ME

7:26 AM EST on January 30, 2015 (GMT -0500)
Springy Pond | Change Station
CLOSE
Current Station
Personal Weather Station
Location: Otis, ME
Elevation: 300 ft
Nearby Weather Stations
Active Advisory: Winter Storm Warning Active Notice: Public Information Statement

Elev 300 ft 44.76 °N, 68.49 °W | Updated 2 minutes ago

Snow
Snow
20.9 °F
Feels Like 21 °F
N
0.0
Wind Variable Wind from SSW
Gusts 0.0 mph

Today
High -- | Low -- °F
--% Chance of Precip.
Yesterday
High -- | Low -- °F
Precip. -- in
6:55 AM 4:38 PM
Waxing Gibbous, 82% visible
Pressure 29.90 in
Visibility 2.0 miles
Clouds Mostly Cloudy 2100 ft
Overcast 3000 ft
Windchill 21 °F
Dew Point 20 °F
Humidity 97%
Rainfall 0.00 in
Snow Depth Not available.
UV 0 out of 12
Pollen .10 out of 12
Air Quality Not available.
Flu Activity Not available.
SPECI KBGR 301206Z 35003KT 2SM -SN BR BKN021 OVC030 M07/M09 A2990 RMK AO2 SFC VIS 3 P0000 T10721094

More Conditions Fewer Conditions

Pressure 29.90 in
Visibility 2.0 miles
Clouds Mostly Cloudy 2100 ft
Overcast 3000 ft
Windchill 21 °F
Dew Point 20 °F
Humidity 97%
Rainfall 0.00 in
Snow Depth Not available.
UV 0 out of 12
Pollen .10 out of 12
Air Quality Not available.
Flu Activity Not available.
SPECI KBGR 301206Z 35003KT 2SM -SN BR BKN021 OVC030 M07/M09 A2990 RMK AO2 SFC VIS 3 P0000 T10721094

More Conditions Fewer Conditions

10-Day Weather Forecast

Almanac

Astronomy

Jan. 30, 2015 Rise Set
Actual Time
Civil Twilight
Nautical Twilight
Astronomical Twilight
Moon
Length of Visible Light
Length of Day
Tomorrow will be .
, % of the Moon is Illuminated

Today's Extremes

State Highs State Lows

Community

WunderPhotos

Upload Photos

1,791,738 photos uploaded!

WunderBlogs® & News

Nearby

Air Quality

  Air Quality AQ Index Pollutant
Not available.

Snow Depth

Station Depth Elevation

Earthquake Activity

City Distance Mag. Time & Date
Minimum magnitude displayed is 2.5.

Coastal Water Temperatures

Place Temperature

Nearby Weather Stations